sensor_id;sensor_type;location;lat;lon;timestamp;P1;durP1;ratioP1;P2;durP2;ratioP2
58512;SDS011;44302;47.914;10.642;2022-07-10T00:01:13;3.80;;;2.47;;
58512;SDS011;44302;47.914;10.642;2022-07-10T00:03:39;3.93;;;2.37;;
58512;SDS011;44302;47.914;10.642;2022-07-10T00:06:05;4.60;;;3.00;;
58512;SDS011;44302;47.914;10.642;2022-07-10T00:08:32;4.70;;;3.13;;
58512;SDS011;44302;47.914;10.642;2022-07-10T00:10:58;4.43;;;3.03;;
58512;SDS011;44302;47.914;10.642;2022-07-10T00:13:24;4.50;;;2.87;;
58512;SDS011;44302;47.914;10.642;2022-07-10T00:15:50;5.47;;;3.10;;
58512;SDS011;44302;47.914;10.642;2022-07-10T00:18:16;3.97;;;3.07;;
58512;SDS011;44302;47.914;10.642;2022-07-10T00:20:42;4.00;;;3.40;;
58512;SDS011;44302;47.914;10.642;2022-07-10T00:23:08;5.93;;;3.93;;
58512;SDS011;44302;47.914;10.642;2022-07-10T00:25:34;5.97;;;3.27;;
58512;SDS011;44302;47.914;10.642;2022-07-10T00:28:00;3.97;;;3.50;;
58512;SDS011;44302;47.914;10.642;2022-07-10T00:30:26;6.37;;;3.73;;
58512;SDS011;44302;47.914;10.642;2022-07-10T00:32:52;4.53;;;3.73;;
58512;SDS011;44302;47.914;10.642;2022-07-10T00:35:18;7.47;;;4.03;;
58512;SDS011;44302;47.914;10.642;2022-07-10T00:37:45;4.47;;;3.87;;
58512;SDS011;44302;47.914;10.642;2022-07-10T00:40:10;4.67;;;3.80;;
58512;SDS011;44302;47.914;10.642;2022-07-10T00:42:37;5.37;;;3.93;;
58512;SDS011;44302;47.914;10.642;2022-07-10T00:45:03;9.23;;;4.07;;
58512;SDS011;44302;47.914;10.642;2022-07-10T00:47:29;6.57;;;3.80;;
58512;SDS011;44302;47.914;10.642;2022-07-10T00:49:55;5.73;;;4.17;;
58512;SDS011;44302;47.914;10.642;2022-07-10T00:52:20;6.80;;;4.00;;
58512;SDS011;44302;47.914;10.642;2022-07-10T00:54:47;5.23;;;4.40;;
58512;SDS011;44302;47.914;10.642;2022-07-10T00:57:16;5.13;;;4.10;;
58512;SDS011;44302;47.914;10.642;2022-07-10T00:59:43;6.83;;;4.13;;
58512;SDS011;44302;47.914;10.642;2022-07-10T01:02:09;4.77;;;4.07;;
58512;SDS011;44302;47.914;10.642;2022-07-10T01:04:36;5.37;;;4.20;;
58512;SDS011;44302;47.914;10.642;2022-07-10T01:07:01;5.10;;;4.50;;
58512;SDS011;44302;47.914;10.642;2022-07-10T01:09:27;7.53;;;4.40;;
58512;SDS011;44302;47.914;10.642;2022-07-10T01:11:55;6.87;;;3.90;;
58512;SDS011;44302;47.914;10.642;2022-07-10T01:14:21;5.30;;;4.63;;
58512;SDS011;44302;47.914;10.642;2022-07-10T01:16:47;5.70;;;5.07;;
58512;SDS011;44302;47.914;10.642;2022-07-10T01:19:14;5.43;;;4.33;;
58512;SDS011;44302;47.914;10.642;2022-07-10T01:21:39;6.87;;;4.43;;
58512;SDS011;44302;47.914;10.642;2022-07-10T01:24:06;6.50;;;4.83;;
58512;SDS011;44302;47.914;10.642;2022-07-10T01:26:33;4.53;;;3.87;;
58512;SDS011;44302;47.914;10.642;2022-07-10T01:29:02;5.40;;;4.43;;
58512;SDS011;44302;47.914;10.642;2022-07-10T01:31:29;4.60;;;4.20;;
58512;SDS011;44302;47.914;10.642;2022-07-10T01:33:55;5.43;;;3.83;;
58512;SDS011;44302;47.914;10.642;2022-07-10T01:36:22;4.40;;;4.00;;
58512;SDS011;44302;47.914;10.642;2022-07-10T01:38:51;5.83;;;4.20;;
58512;SDS011;44302;47.914;10.642;2022-07-10T01:41:18;4.90;;;4.27;;
58512;SDS011;44302;47.914;10.642;2022-07-10T01:43:43;4.60;;;4.20;;
58512;SDS011;44302;47.914;10.642;2022-07-10T01:46:10;4.30;;;3.90;;
58512;SDS011;44302;47.914;10.642;2022-07-10T01:48:40;7.27;;;4.60;;
58512;SDS011;44302;47.914;10.642;2022-07-10T01:51:07;5.77;;;4.37;;
58512;SDS011;44302;47.914;10.642;2022-07-10T01:53:34;4.77;;;4.33;;
58512;SDS011;44302;47.914;10.642;2022-07-10T01:56:00;5.07;;;4.67;;
58512;SDS011;44302;47.914;10.642;2022-07-10T01:58:31;5.23;;;4.70;;
58512;SDS011;44302;47.914;10.642;2022-07-10T02:00:57;5.47;;;4.70;;
58512;SDS011;44302;47.914;10.642;2022-07-10T02:03:23;4.43;;;4.00;;
58512;SDS011;44302;47.914;10.642;2022-07-10T02:06:07;6.83;;;4.53;;
58512;SDS011;44302;47.914;10.642;2022-07-10T02:08:33;5.03;;;4.60;;
58512;SDS011;44302;47.914;10.642;2022-07-10T02:10:58;7.27;;;4.90;;
58512;SDS011;44302;47.914;10.642;2022-07-10T02:13:24;6.13;;;4.13;;
58512;SDS011;44302;47.914;10.642;2022-07-10T02:15:52;5.57;;;4.13;;
58512;SDS011;44302;47.914;10.642;2022-07-10T02:18:19;5.37;;;4.77;;
58512;SDS011;44302;47.914;10.642;2022-07-10T02:20:45;7.27;;;5.80;;
58512;SDS011;44302;47.914;10.642;2022-07-10T02:23:11;6.10;;;5.50;;
58512;SDS011;44302;47.914;10.642;2022-07-10T02:25:37;6.37;;;5.40;;
58512;SDS011;44302;47.914;10.642;2022-07-10T02:28:03;5.87;;;5.23;;
58512;SDS011;44302;47.914;10.642;2022-07-10T02:30:29;5.77;;;5.17;;
58512;SDS011;44302;47.914;10.642;2022-07-10T02:32:55;6.00;;;5.40;;
58512;SDS011;44302;47.914;10.642;2022-07-10T02:35:20;6.63;;;5.17;;
58512;SDS011;44302;47.914;10.642;2022-07-10T02:37:46;5.73;;;5.00;;
58512;SDS011;44302;47.914;10.642;2022-07-10T02:40:12;6.97;;;5.27;;
58512;SDS011;44302;47.914;10.642;2022-07-10T02:42:38;5.83;;;5.07;;
58512;SDS011;44302;47.914;10.642;2022-07-10T02:45:04;6.10;;;5.27;;
58512;SDS011;44302;47.914;10.642;2022-07-10T02:47:30;7.70;;;4.70;;
58512;SDS011;44302;47.914;10.642;2022-07-10T02:49:55;5.47;;;4.97;;
58512;SDS011;44302;47.914;10.642;2022-07-10T02:52:21;5.50;;;4.70;;
58512;SDS011;44302;47.914;10.642;2022-07-10T02:54:47;5.50;;;4.90;;
58512;SDS011;44302;47.914;10.642;2022-07-10T02:57:13;5.87;;;5.30;;
58512;SDS011;44302;47.914;10.642;2022-07-10T02:59:39;5.27;;;4.77;;
58512;SDS011;44302;47.914;10.642;2022-07-10T03:02:04;6.37;;;4.80;;
58512;SDS011;44302;47.914;10.642;2022-07-10T03:04:30;5.40;;;4.57;;
58512;SDS011;44302;47.914;10.642;2022-07-10T03:06:56;5.67;;;4.63;;
58512;SDS011;44302;47.914;10.642;2022-07-10T03:09:22;5.93;;;5.30;;
58512;SDS011;44302;47.914;10.642;2022-07-10T03:11:48;5.80;;;5.10;;
58512;SDS011;44302;47.914;10.642;2022-07-10T03:14:14;6.77;;;5.00;;
58512;SDS011;44302;47.914;10.642;2022-07-10T03:16:40;6.93;;;5.27;;
58512;SDS011;44302;47.914;10.642;2022-07-10T03:19:06;9.00;;;5.03;;
58512;SDS011;44302;47.914;10.642;2022-07-10T03:21:31;6.10;;;5.23;;
58512;SDS011;44302;47.914;10.642;2022-07-10T03:23:57;5.23;;;4.73;;
58512;SDS011;44302;47.914;10.642;2022-07-10T03:26:23;6.57;;;4.80;;
58512;SDS011;44302;47.914;10.642;2022-07-10T03:28:49;8.83;;;5.13;;
58512;SDS011;44302;47.914;10.642;2022-07-10T03:31:15;6.13;;;5.40;;
58512;SDS011;44302;47.914;10.642;2022-07-10T03:33:40;5.40;;;4.90;;
58512;SDS011;44302;47.914;10.642;2022-07-10T03:36:06;6.03;;;5.43;;
58512;SDS011;44302;47.914;10.642;2022-07-10T03:38:33;5.80;;;5.17;;
58512;SDS011;44302;47.914;10.642;2022-07-10T03:40:58;5.97;;;5.40;;
58512;SDS011;44302;47.914;10.642;2022-07-10T03:43:24;6.33;;;5.07;;
58512;SDS011;44302;47.914;10.642;2022-07-10T03:45:50;6.67;;;4.97;;
58512;SDS011;44302;47.914;10.642;2022-07-10T03:48:17;6.97;;;5.23;;
58512;SDS011;44302;47.914;10.642;2022-07-10T03:50:43;7.40;;;5.37;;
58512;SDS011;44302;47.914;10.642;2022-07-10T03:53:08;6.70;;;5.30;;
58512;SDS011;44302;47.914;10.642;2022-07-10T03:55:35;5.60;;;5.03;;
58512;SDS011;44302;47.914;10.642;2022-07-10T03:58:00;7.17;;;5.17;;
58512;SDS011;44302;47.914;10.642;2022-07-10T04:00:30;6.70;;;4.90;;
58512;SDS011;44302;47.914;10.642;2022-07-10T04:03:04;7.57;;;5.17;;
58512;SDS011;44302;47.914;10.642;2022-07-10T04:05:31;5.50;;;5.00;;
58512;SDS011;44302;47.914;10.642;2022-07-10T04:07:58;5.73;;;5.00;;
58512;SDS011;44302;47.914;10.642;2022-07-10T04:10:24;5.43;;;4.93;;
58512;SDS011;44302;47.914;10.642;2022-07-10T04:12:51;5.80;;;5.20;;
58512;SDS011;44302;47.914;10.642;2022-07-10T04:15:17;6.93;;;5.10;;
58512;SDS011;44302;47.914;10.642;2022-07-10T04:17:43;5.60;;;5.00;;
58512;SDS011;44302;47.914;10.642;2022-07-10T04:20:10;5.37;;;4.50;;
58512;SDS011;44302;47.914;10.642;2022-07-10T04:22:36;5.57;;;4.37;;
58512;SDS011;44302;47.914;10.642;2022-07-10T04:25:02;5.47;;;4.57;;
58512;SDS011;44302;47.914;10.642;2022-07-10T04:27:28;8.60;;;5.40;;
58512;SDS011;44302;47.914;10.642;2022-07-10T04:29:54;5.13;;;4.73;;
58512;SDS011;44302;47.914;10.642;2022-07-10T04:32:20;6.53;;;5.30;;
58512;SDS011;44302;47.914;10.642;2022-07-10T04:34:46;5.37;;;4.87;;
58512;SDS011;44302;47.914;10.642;2022-07-10T04:37:12;5.43;;;4.93;;
58512;SDS011;44302;47.914;10.642;2022-07-10T04:39:38;7.33;;;4.57;;
58512;SDS011;44302;47.914;10.642;2022-07-10T04:42:04;7.07;;;5.00;;
58512;SDS011;44302;47.914;10.642;2022-07-10T04:44:31;5.30;;;4.80;;
58512;SDS011;44302;47.914;10.642;2022-07-10T04:46:57;4.93;;;4.53;;
58512;SDS011;44302;47.914;10.642;2022-07-10T04:49:23;8.47;;;5.27;;
58512;SDS011;44302;47.914;10.642;2022-07-10T04:51:49;5.17;;;4.67;;
58512;SDS011;44302;47.914;10.642;2022-07-10T04:54:15;5.40;;;4.90;;
58512;SDS011;44302;47.914;10.642;2022-07-10T04:56:41;6.60;;;4.63;;
58512;SDS011;44302;47.914;10.642;2022-07-10T04:59:08;6.00;;;5.20;;
58512;SDS011;44302;47.914;10.642;2022-07-10T05:01:34;5.00;;;4.50;;
58512;SDS011;44302;47.914;10.642;2022-07-10T05:04:00;6.27;;;4.97;;
58512;SDS011;44302;47.914;10.642;2022-07-10T05:06:26;5.53;;;4.70;;
58512;SDS011;44302;47.914;10.642;2022-07-10T05:08:52;5.57;;;4.50;;
58512;SDS011;44302;47.914;10.642;2022-07-10T05:11:18;6.10;;;4.90;;
58512;SDS011;44302;47.914;10.642;2022-07-10T05:13:44;5.63;;;4.93;;
58512;SDS011;44302;47.914;10.642;2022-07-10T05:16:13;5.97;;;5.37;;
58512;SDS011;44302;47.914;10.642;2022-07-10T05:18:42;6.57;;;5.37;;
58512;SDS011;44302;47.914;10.642;2022-07-10T05:21:07;6.60;;;5.83;;
58512;SDS011;44302;47.914;10.642;2022-07-10T05:23:34;6.37;;;5.53;;
58512;SDS011;44302;47.914;10.642;2022-07-10T05:26:00;6.43;;;5.83;;
58512;SDS011;44302;47.914;10.642;2022-07-10T05:28:25;5.97;;;5.37;;
58512;SDS011;44302;47.914;10.642;2022-07-10T05:30:51;6.20;;;5.60;;
58512;SDS011;44302;47.914;10.642;2022-07-10T05:33:18;6.37;;;5.47;;
58512;SDS011;44302;47.914;10.642;2022-07-10T05:35:44;8.93;;;5.90;;
58512;SDS011;44302;47.914;10.642;2022-07-10T05:38:10;6.57;;;5.90;;
58512;SDS011;44302;47.914;10.642;2022-07-10T05:40:36;7.77;;;5.63;;
58512;SDS011;44302;47.914;10.642;2022-07-10T05:43:02;6.07;;;5.23;;
58512;SDS011;44302;47.914;10.642;2022-07-10T05:45:29;5.63;;;4.80;;
58512;SDS011;44302;47.914;10.642;2022-07-10T05:47:55;10.60;;;5.70;;
58512;SDS011;44302;47.914;10.642;2022-07-10T05:50:21;7.63;;;5.80;;
58512;SDS011;44302;47.914;10.642;2022-07-10T05:52:47;6.33;;;5.57;;
58512;SDS011;44302;47.914;10.642;2022-07-10T05:55:14;6.17;;;5.57;;
58512;SDS011;44302;47.914;10.642;2022-07-10T05:57:40;7.10;;;5.50;;
58512;SDS011;44302;47.914;10.642;2022-07-10T06:00:06;8.53;;;5.93;;
58512;SDS011;44302;47.914;10.642;2022-07-10T06:02:33;7.37;;;5.47;;
58512;SDS011;44302;47.914;10.642;2022-07-10T06:04:59;6.33;;;5.73;;
58512;SDS011;44302;47.914;10.642;2022-07-10T06:07:25;6.63;;;5.87;;
58512;SDS011;44302;47.914;10.642;2022-07-10T06:09:52;7.60;;;6.47;;
58512;SDS011;44302;47.914;10.642;2022-07-10T06:12:18;6.80;;;6.20;;
58512;SDS011;44302;47.914;10.642;2022-07-10T06:14:43;10.03;;;6.80;;
58512;SDS011;44302;47.914;10.642;2022-07-10T06:17:09;7.37;;;6.67;;
58512;SDS011;44302;47.914;10.642;2022-07-10T06:19:35;8.57;;;7.00;;
58512;SDS011;44302;47.914;10.642;2022-07-10T06:22:00;7.53;;;6.20;;
58512;SDS011;44302;47.914;10.642;2022-07-10T06:24:45;8.60;;;6.77;;
58512;SDS011;44302;47.914;10.642;2022-07-10T06:27:10;6.83;;;6.20;;
58512;SDS011;44302;47.914;10.642;2022-07-10T06:29:36;7.43;;;6.17;;
58512;SDS011;44302;47.914;10.642;2022-07-10T06:32:03;8.90;;;6.10;;
58512;SDS011;44302;47.914;10.642;2022-07-10T06:34:29;6.17;;;5.57;;
58512;SDS011;44302;47.914;10.642;2022-07-10T06:36:55;7.17;;;6.10;;
58512;SDS011;44302;47.914;10.642;2022-07-10T06:39:21;5.57;;;5.07;;
58512;SDS011;44302;47.914;10.642;2022-07-10T06:41:46;6.93;;;6.07;;
58512;SDS011;44302;47.914;10.642;2022-07-10T06:44:12;5.97;;;5.47;;
58512;SDS011;44302;47.914;10.642;2022-07-10T06:46:38;7.97;;;5.60;;
58512;SDS011;44302;47.914;10.642;2022-07-10T06:49:04;7.23;;;6.33;;
58512;SDS011;44302;47.914;10.642;2022-07-10T06:51:30;8.17;;;5.80;;
58512;SDS011;44302;47.914;10.642;2022-07-10T06:53:56;8.03;;;5.53;;
58512;SDS011;44302;47.914;10.642;2022-07-10T06:56:22;6.20;;;5.60;;
58512;SDS011;44302;47.914;10.642;2022-07-10T06:58:48;7.07;;;5.57;;
58512;SDS011;44302;47.914;10.642;2022-07-10T07:01:14;5.73;;;5.20;;
58512;SDS011;44302;47.914;10.642;2022-07-10T07:03:40;5.40;;;4.87;;
58512;SDS011;44302;47.914;10.642;2022-07-10T07:06:06;6.63;;;5.10;;
58512;SDS011;44302;47.914;10.642;2022-07-10T07:08:32;5.37;;;4.87;;
58512;SDS011;44302;47.914;10.642;2022-07-10T07:11:00;7.20;;;5.70;;
58512;SDS011;44302;47.914;10.642;2022-07-10T07:13:25;9.13;;;5.40;;
58512;SDS011;44302;47.914;10.642;2022-07-10T07:15:51;5.93;;;5.13;;
58512;SDS011;44302;47.914;10.642;2022-07-10T07:18:30;6.30;;;5.53;;
58512;SDS011;44302;47.914;10.642;2022-07-10T07:21:00;6.63;;;5.17;;
58512;SDS011;44302;47.914;10.642;2022-07-10T07:23:44;5.07;;;4.57;;
58512;SDS011;44302;47.914;10.642;2022-07-10T07:26:10;5.90;;;5.30;;
58512;SDS011;44302;47.914;10.642;2022-07-10T07:28:35;5.53;;;4.90;;
58512;SDS011;44302;47.914;10.642;2022-07-10T07:31:01;5.50;;;5.00;;
58512;SDS011;44302;47.914;10.642;2022-07-10T07:33:27;7.10;;;5.10;;
58512;SDS011;44302;47.914;10.642;2022-07-10T07:35:53;8.17;;;5.00;;
58512;SDS011;44302;47.914;10.642;2022-07-10T07:38:19;7.37;;;4.73;;
58512;SDS011;44302;47.914;10.642;2022-07-10T07:40:44;8.30;;;5.30;;
58512;SDS011;44302;47.914;10.642;2022-07-10T07:43:10;7.93;;;5.40;;
58512;SDS011;44302;47.914;10.642;2022-07-10T07:45:36;5.20;;;4.70;;
58512;SDS011;44302;47.914;10.642;2022-07-10T07:48:03;7.30;;;5.27;;
58512;SDS011;44302;47.914;10.642;2022-07-10T07:50:30;6.13;;;4.27;;
58512;SDS011;44302;47.914;10.642;2022-07-10T07:52:57;5.30;;;4.80;;
58512;SDS011;44302;47.914;10.642;2022-07-10T07:55:30;4.77;;;4.37;;
58512;SDS011;44302;47.914;10.642;2022-07-10T07:57:58;7.10;;;4.57;;
58512;SDS011;44302;47.914;10.642;2022-07-10T08:00:25;6.53;;;4.77;;
58512;SDS011;44302;47.914;10.642;2022-07-10T08:02:52;6.37;;;4.27;;
58512;SDS011;44302;47.914;10.642;2022-07-10T08:05:19;6.03;;;4.37;;
58512;SDS011;44302;47.914;10.642;2022-07-10T08:07:47;7.73;;;4.33;;
58512;SDS011;44302;47.914;10.642;2022-07-10T08:10:14;5.47;;;4.67;;
58512;SDS011;44302;47.914;10.642;2022-07-10T08:12:41;5.60;;;4.53;;
58512;SDS011;44302;47.914;10.642;2022-07-10T08:15:08;5.87;;;4.43;;
58512;SDS011;44302;47.914;10.642;2022-07-10T08:17:35;6.03;;;4.40;;
58512;SDS011;44302;47.914;10.642;2022-07-10T08:20:02;6.23;;;4.77;;
58512;SDS011;44302;47.914;10.642;2022-07-10T08:22:29;4.43;;;4.03;;
58512;SDS011;44302;47.914;10.642;2022-07-10T08:24:54;5.77;;;4.20;;
58512;SDS011;44302;47.914;10.642;2022-07-10T08:27:21;7.10;;;4.47;;
58512;SDS011;44302;47.914;10.642;2022-07-10T08:29:47;9.50;;;4.67;;
58512;SDS011;44302;47.914;10.642;2022-07-10T08:32:13;5.47;;;4.43;;
58512;SDS011;44302;47.914;10.642;2022-07-10T08:34:39;7.13;;;4.37;;
58512;SDS011;44302;47.914;10.642;2022-07-10T08:37:05;5.40;;;4.20;;
58512;SDS011;44302;47.914;10.642;2022-07-10T08:39:31;7.90;;;4.63;;
58512;SDS011;44302;47.914;10.642;2022-07-10T08:41:58;3.83;;;3.20;;
58512;SDS011;44302;47.914;10.642;2022-07-10T08:44:24;4.43;;;3.57;;
58512;SDS011;44302;47.914;10.642;2022-07-10T08:46:49;4.27;;;3.53;;
58512;SDS011;44302;47.914;10.642;2022-07-10T08:49:16;3.90;;;3.50;;
58512;SDS011;44302;47.914;10.642;2022-07-10T08:51:58;6.77;;;3.60;;
58512;SDS011;44302;47.914;10.642;2022-07-10T08:54:38;5.00;;;3.10;;
58512;SDS011;44302;47.914;10.642;2022-07-10T08:57:04;5.90;;;3.20;;
58512;SDS011;44302;47.914;10.642;2022-07-10T08:59:30;3.40;;;2.77;;
58512;SDS011;44302;47.914;10.642;2022-07-10T09:01:56;4.30;;;3.43;;
58512;SDS011;44302;47.914;10.642;2022-07-10T09:04:23;7.77;;;3.40;;
58512;SDS011;44302;47.914;10.642;2022-07-10T09:06:50;4.70;;;3.27;;
58512;SDS011;44302;47.914;10.642;2022-07-10T09:09:17;4.47;;;3.80;;
58512;SDS011;44302;47.914;10.642;2022-07-10T09:11:44;4.27;;;3.20;;
58512;SDS011;44302;47.914;10.642;2022-07-10T09:14:13;3.77;;;3.37;;
58512;SDS011;44302;47.914;10.642;2022-07-10T09:16:44;3.40;;;2.60;;
58512;SDS011;44302;47.914;10.642;2022-07-10T09:22:02;4.67;;;2.93;;
58512;SDS011;44302;47.914;10.642;2022-07-10T09:24:34;3.53;;;3.23;;
58512;SDS011;44302;47.914;10.642;2022-07-10T09:27:08;3.87;;;3.00;;
58512;SDS011;44302;47.914;10.642;2022-07-10T09:29:51;3.20;;;2.90;;
58512;SDS011;44302;47.914;10.642;2022-07-10T09:32:21;3.37;;;2.90;;
58512;SDS011;44302;47.914;10.642;2022-07-10T09:34:47;3.90;;;3.00;;
58512;SDS011;44302;47.914;10.642;2022-07-10T09:37:29;3.37;;;2.70;;
58512;SDS011;44302;47.914;10.642;2022-07-10T09:39:58;5.93;;;2.97;;
58512;SDS011;44302;47.914;10.642;2022-07-10T09:50:20;2.70;;;2.50;;
58512;SDS011;44302;47.914;10.642;2022-07-10T09:52:50;4.13;;;2.80;;
58512;SDS011;44302;47.914;10.642;2022-07-10T09:55:27;5.53;;;3.00;;
58512;SDS011;44302;47.914;10.642;2022-07-10T09:57:58;2.90;;;2.53;;
58512;SDS011;44302;47.914;10.642;2022-07-10T10:00:32;2.93;;;2.63;;
58512;SDS011;44302;47.914;10.642;2022-07-10T10:03:00;3.07;;;2.63;;
58512;SDS011;44302;47.914;10.642;2022-07-10T10:10:50;5.37;;;2.57;;
58512;SDS011;44302;47.914;10.642;2022-07-10T10:13:17;2.70;;;2.50;;
58512;SDS011;44302;47.914;10.642;2022-07-10T10:15:45;3.20;;;2.60;;
58512;SDS011;44302;47.914;10.642;2022-07-10T10:18:12;4.37;;;2.43;;
58512;SDS011;44302;47.914;10.642;2022-07-10T10:20:40;3.17;;;2.57;;
58512;SDS011;44302;47.914;10.642;2022-07-10T10:23:09;3.50;;;2.30;;
58512;SDS011;44302;47.914;10.642;2022-07-10T10:25:37;2.63;;;2.20;;
58512;SDS011;44302;47.914;10.642;2022-07-10T10:28:04;2.93;;;2.10;;
58512;SDS011;44302;47.914;10.642;2022-07-10T10:30:33;3.57;;;2.37;;
58512;SDS011;44302;47.914;10.642;2022-07-10T10:35:56;2.03;;;1.83;;
58512;SDS011;44302;47.914;10.642;2022-07-10T10:38:23;3.70;;;2.17;;
58512;SDS011;44302;47.914;10.642;2022-07-10T10:40:48;2.83;;;2.03;;
58512;SDS011;44302;47.914;10.642;2022-07-10T10:43:21;2.17;;;1.97;;
58512;SDS011;44302;47.914;10.642;2022-07-10T10:45:48;2.47;;;2.10;;
58512;SDS011;44302;47.914;10.642;2022-07-10T10:48:15;4.70;;;2.07;;
58512;SDS011;44302;47.914;10.642;2022-07-10T10:50:46;2.77;;;2.10;;
58512;SDS011;44302;47.914;10.642;2022-07-10T10:53:17;2.57;;;2.03;;
58512;SDS011;44302;47.914;10.642;2022-07-10T11:01:05;4.80;;;1.90;;
58512;SDS011;44302;47.914;10.642;2022-07-10T11:06:38;2.00;;;1.50;;
58512;SDS011;44302;47.914;10.642;2022-07-10T11:09:24;2.60;;;1.77;;
58512;SDS011;44302;47.914;10.642;2022-07-10T11:11:58;3.30;;;2.00;;
58512;SDS011;44302;47.914;10.642;2022-07-10T11:14:34;2.57;;;1.77;;
58512;SDS011;44302;47.914;10.642;2022-07-10T11:17:02;5.80;;;2.10;;
58512;SDS011;44302;47.914;10.642;2022-07-10T11:19:29;2.23;;;1.70;;
58512;SDS011;44302;47.914;10.642;2022-07-10T11:27:09;1.87;;;1.47;;
58512;SDS011;44302;47.914;10.642;2022-07-10T11:29:56;2.93;;;1.57;;
58512;SDS011;44302;47.914;10.642;2022-07-10T11:32:23;2.03;;;1.50;;
58512;SDS011;44302;47.914;10.642;2022-07-10T11:34:49;2.53;;;1.50;;
58512;SDS011;44302;47.914;10.642;2022-07-10T11:37:15;2.43;;;1.37;;
58512;SDS011;44302;47.914;10.642;2022-07-10T11:39:41;2.53;;;1.77;;
58512;SDS011;44302;47.914;10.642;2022-07-10T11:42:07;2.60;;;1.50;;
58512;SDS011;44302;47.914;10.642;2022-07-10T11:44:33;3.00;;;1.63;;
58512;SDS011;44302;47.914;10.642;2022-07-10T11:46:59;5.87;;;1.70;;
58512;SDS011;44302;47.914;10.642;2022-07-10T11:49:25;2.53;;;1.63;;
58512;SDS011;44302;47.914;10.642;2022-07-10T11:51:52;1.60;;;1.30;;
58512;SDS011;44302;47.914;10.642;2022-07-10T11:54:19;2.07;;;1.57;;
58512;SDS011;44302;47.914;10.642;2022-07-10T11:56:48;1.63;;;1.30;;
58512;SDS011;44302;47.914;10.642;2022-07-10T11:59:17;1.97;;;1.40;;
58512;SDS011;44302;47.914;10.642;2022-07-10T12:01:48;2.33;;;1.50;;
58512;SDS011;44302;47.914;10.642;2022-07-10T12:04:16;2.57;;;1.50;;
58512;SDS011;44302;47.914;10.642;2022-07-10T12:06:45;3.13;;;1.40;;
58512;SDS011;44302;47.914;10.642;2022-07-10T12:09:15;3.73;;;1.70;;
58512;SDS011;44302;47.914;10.642;2022-07-10T12:11:44;2.73;;;1.70;;
58512;SDS011;44302;47.914;10.642;2022-07-10T12:14:22;2.10;;;1.50;;
58512;SDS011;44302;47.914;10.642;2022-07-10T12:16:49;1.90;;;1.13;;
58512;SDS011;44302;47.914;10.642;2022-07-10T12:19:19;2.67;;;1.43;;
58512;SDS011;44302;47.914;10.642;2022-07-10T12:21:49;1.60;;;1.40;;
58512;SDS011;44302;47.914;10.642;2022-07-10T12:24:16;3.10;;;1.53;;
58512;SDS011;44302;47.914;10.642;2022-07-10T12:26:44;1.83;;;1.30;;
58512;SDS011;44302;47.914;10.642;2022-07-10T12:29:20;2.37;;;1.40;;
58512;SDS011;44302;47.914;10.642;2022-07-10T12:31:51;2.50;;;1.10;;
58512;SDS011;44302;47.914;10.642;2022-07-10T12:34:40;3.60;;;1.57;;
58512;SDS011;44302;47.914;10.642;2022-07-10T12:37:15;1.43;;;1.20;;
58512;SDS011;44302;47.914;10.642;2022-07-10T12:39:51;2.40;;;1.20;;
58512;SDS011;44302;47.914;10.642;2022-07-10T12:42:51;3.53;;;1.40;;
58512;SDS011;44302;47.914;10.642;2022-07-10T12:45:13;1.37;;;1.10;;
58512;SDS011;44302;47.914;10.642;2022-07-10T12:47:47;2.77;;;1.20;;
58512;SDS011;44302;47.914;10.642;2022-07-10T12:50:15;1.77;;;1.20;;
58512;SDS011;44302;47.914;10.642;2022-07-10T12:52:42;2.67;;;1.30;;
58512;SDS011;44302;47.914;10.642;2022-07-10T12:55:15;2.17;;;1.20;;
58512;SDS011;44302;47.914;10.642;2022-07-10T12:57:53;5.50;;;1.30;;
58512;SDS011;44302;47.914;10.642;2022-07-10T13:00:23;2.63;;;1.13;;
58512;SDS011;44302;47.914;10.642;2022-07-10T13:03:06;1.50;;;1.07;;
58512;SDS011;44302;47.914;10.642;2022-07-10T13:05:34;2.70;;;1.10;;
58512;SDS011;44302;47.914;10.642;2022-07-10T13:08:04;1.50;;;1.17;;
58512;SDS011;44302;47.914;10.642;2022-07-10T13:10:51;1.27;;;1.13;;
58512;SDS011;44302;47.914;10.642;2022-07-10T13:13:19;1.30;;;1.10;;
58512;SDS011;44302;47.914;10.642;2022-07-10T13:15:45;2.53;;;1.40;;
58512;SDS011;44302;47.914;10.642;2022-07-10T13:18:18;2.70;;;1.10;;
58512;SDS011;44302;47.914;10.642;2022-07-10T13:20:46;2.67;;;1.00;;
58512;SDS011;44302;47.914;10.642;2022-07-10T13:23:13;1.10;;;1.00;;
58512;SDS011;44302;47.914;10.642;2022-07-10T13:25:39;2.67;;;1.50;;
58512;SDS011;44302;47.914;10.642;2022-07-10T13:28:06;2.77;;;1.50;;
58512;SDS011;44302;47.914;10.642;2022-07-10T13:30:33;1.30;;;1.10;;
58512;SDS011;44302;47.914;10.642;2022-07-10T13:32:59;2.70;;;1.10;;
58512;SDS011;44302;47.914;10.642;2022-07-10T13:35:28;2.00;;;1.13;;
58512;SDS011;44302;47.914;10.642;2022-07-10T13:37:54;1.77;;;1.20;;
58512;SDS011;44302;47.914;10.642;2022-07-10T13:40:20;3.43;;;1.00;;
58512;SDS011;44302;47.914;10.642;2022-07-10T13:42:46;3.10;;;1.40;;
58512;SDS011;44302;47.914;10.642;2022-07-10T13:45:12;3.87;;;1.27;;
58512;SDS011;44302;47.914;10.642;2022-07-10T13:47:38;5.10;;;1.30;;
58512;SDS011;44302;47.914;10.642;2022-07-10T13:50:04;2.10;;;1.00;;
58512;SDS011;44302;47.914;10.642;2022-07-10T13:52:30;1.33;;;1.07;;
58512;SDS011;44302;47.914;10.642;2022-07-10T13:54:55;2.07;;;1.30;;
58512;SDS011;44302;47.914;10.642;2022-07-10T13:57:22;1.27;;;1.10;;
58512;SDS011;44302;47.914;10.642;2022-07-10T13:59:48;1.67;;;0.90;;
58512;SDS011;44302;47.914;10.642;2022-07-10T14:02:14;4.47;;;1.27;;
58512;SDS011;44302;47.914;10.642;2022-07-10T14:04:39;1.43;;;1.00;;
58512;SDS011;44302;47.914;10.642;2022-07-10T14:07:06;1.70;;;1.00;;
58512;SDS011;44302;47.914;10.642;2022-07-10T14:09:31;2.00;;;1.10;;
58512;SDS011;44302;47.914;10.642;2022-07-10T14:11:57;1.53;;;1.13;;
58512;SDS011;44302;47.914;10.642;2022-07-10T14:14:23;1.07;;;0.90;;
58512;SDS011;44302;47.914;10.642;2022-07-10T14:16:48;2.73;;;1.27;;
58512;SDS011;44302;47.914;10.642;2022-07-10T14:19:16;1.73;;;1.17;;
58512;SDS011;44302;47.914;10.642;2022-07-10T14:21:42;2.00;;;1.10;;
58512;SDS011;44302;47.914;10.642;2022-07-10T14:24:08;3.13;;;1.30;;
58512;SDS011;44302;47.914;10.642;2022-07-10T14:26:34;2.70;;;1.20;;
58512;SDS011;44302;47.914;10.642;2022-07-10T14:29:01;2.57;;;1.23;;
58512;SDS011;44302;47.914;10.642;2022-07-10T14:31:30;2.73;;;1.40;;
58512;SDS011;44302;47.914;10.642;2022-07-10T14:33:56;1.33;;;1.13;;
58512;SDS011;44302;47.914;10.642;2022-07-10T14:36:22;1.07;;;0.90;;
58512;SDS011;44302;47.914;10.642;2022-07-10T14:38:51;1.60;;;1.10;;
58512;SDS011;44302;47.914;10.642;2022-07-10T14:41:18;2.40;;;1.33;;
58512;SDS011;44302;47.914;10.642;2022-07-10T14:43:44;6.37;;;1.37;;
58512;SDS011;44302;47.914;10.642;2022-07-10T14:46:10;1.10;;;1.00;;
58512;SDS011;44302;47.914;10.642;2022-07-10T14:48:36;3.10;;;1.10;;
58512;SDS011;44302;47.914;10.642;2022-07-10T14:51:01;2.13;;;1.07;;
58512;SDS011;44302;47.914;10.642;2022-07-10T14:53:28;2.50;;;1.30;;
58512;SDS011;44302;47.914;10.642;2022-07-10T14:55:55;1.73;;;1.10;;
58512;SDS011;44302;47.914;10.642;2022-07-10T14:58:21;1.37;;;1.03;;
58512;SDS011;44302;47.914;10.642;2022-07-10T15:00:46;3.20;;;1.00;;
58512;SDS011;44302;47.914;10.642;2022-07-10T15:03:12;1.30;;;1.20;;
58512;SDS011;44302;47.914;10.642;2022-07-10T15:05:38;2.20;;;1.10;;
58512;SDS011;44302;47.914;10.642;2022-07-10T15:08:03;4.37;;;1.23;;